An Xiu Shan — BRQV — position and weather

sailwx.info

Track history (hours):
 
Tides and Currents Weather Stations Pressure Air Temp Water Temp Dewpoint Dewpoint Depression Visibility Wind Speed Wind Dir Waves Ship Positions

An Xiu Shan

Last reported at 2015-Apr-01 16:32 UTC. Time now 2015-Apr-01 16:38 UTC.
Position N 23°55' E 118°21'.

Length 199 m; draft 12.6 m.

Type: Cargo ship. MMSI: 413195000.

Date/timePositionNaut miles runAvg speedWind from/ knotsBaromVisibWave heightAir tempDewpointWater temp
2015-Apr-01 16:32N 23°55' E 118°21'1310.5
2015-Apr-01 15:17N 24°03' E 118°33'30 9.9
2015-Apr-01 12:17N 24°23' E 118°56'7 9.2
2015-Apr-01 11:32N 24°28' E 119°02'9 8.7
2015-Apr-01 10:33N 24°32' E 119°10'9 8.8
2015-Apr-01 09:32N 24°38' E 119°17'9 9.0
2015-Apr-01 08:33N 24°44' E 119°24'9 8.8
2015-Apr-01 07:32N 24°50' E 119°32'9 8.6
2015-Apr-01 06:31N 24°56' E 119°39'324 9.3
2015-Mar-30 19:30N 29°33' E 122°48'1310.0
2015-Mar-30 18:11N 29°46' E 122°52'710.1
2015-Mar-30 17:32N 29°52' E 122°55'152 8.8
2015-Mar-30 00:19N 32°24' E 122°54'7 9.1
2015-Mar-29 23:33N 32°31' E 122°54'9 9.3
2015-Mar-29 22:33N 32°40' E 122°54'10 9.8
2015-Mar-29 21:32N 32°50' E 122°54'23410.1
2015-Mar-28 22:25N 36°44' E 122°55'1110.7
2015-Mar-28 21:20N 36°56' E 122°52'810.4
2015-Mar-28 20:33N 37°03' E 122°49'1110.2
2015-Mar-28 19:30N 37°14' E 122°48'18 8.7
2015-Mar-28 17:26N 37°31' E 122°40'9 9.3
2015-Mar-28 16:27N 37°38' E 122°33'9 9.4
2015-Mar-28 15:32N 37°44' E 122°25'20 9.9
2015-Mar-28 13:29N 37°57' E 122°05'195 9.8
2015-Mar-27 17:31N 38°55' E 118°07'1111.3
2015-Mar-27 16:33N 38°57' E 117°53'4 3.4
2015-Mar-27 15:22N 38°58' E 117°48'0 0.0
2015-Mar-27 14:28N 38°58' E 117°48'0 0.0
2015-Mar-27 13:22N 38°58' E 117°48'0 0.0
2015-Mar-27 12:28N 38°58' E 117°48'0 0.0
2015-Mar-27 11:28N 38°58' E 117°48'0 0.0
2015-Mar-27 10:16N 38°58' E 117°48'0 0.0
2015-Mar-27 09:28N 38°58' E 117°48'0 0.0
2015-Mar-27 08:28N 38°58' E 117°48'0 0.0
2015-Mar-27 07:28N 38°58' E 117°48'0 0.0
2015-Mar-27 06:28N 38°58' E 117°48'0 0.0
2015-Mar-27 05:22N 38°58' E 117°48'0 0.0
2015-Mar-27 04:28N 38°58' E 117°48'0 0.0
2015-Mar-27 03:28N 38°58' E 117°48'0 0.0
2015-Mar-27 02:22N 38°58' E 117°48'0 0.0
2015-Mar-27 01:28N 38°58' E 117°48'0 0.0
2015-Mar-27 00:28N 38°58' E 117°48'0 0.0
2015-Mar-26 23:28N 38°58' E 117°48'0 0.0
2015-Mar-26 22:28N 38°58' E 117°48'0 0.0
2015-Mar-26 21:28N 38°58' E 117°48'0 0.0
2015-Mar-26 20:22N 38°58' E 117°48'0 0.0
2015-Mar-26 19:22N 38°58' E 117°48'0 0.0
2015-Mar-26 18:28N 38°58' E 117°48'0 0.0
2015-Mar-26 17:28N 38°58' E 117°48'0 0.0
2015-Mar-26 16:28N 38°58' E 117°48'0 0.0
2015-Mar-26 15:27N 38°58' E 117°48'5 6.1
2015-Mar-26 14:33N 38°57' E 117°55'10 9.3
2015-Mar-26 13:31N 38°56' E 118°07'1 1.0
2015-Mar-26 12:15N 38°57' E 118°09'0 0.0
2015-Mar-26 04:15N 38°57' E 118°09'0 0.0
2015-Mar-26 01:03N 38°57' E 118°09'0 0.0
2015-Mar-26 00:15N 38°57' E 118°09'0 0.0
2015-Mar-25 23:03N 38°57' E 118°09'0 0.1
2015-Mar-25 20:33N 38°57' E 118°09'0 0.0
2015-Mar-25 13:27N 38°57' E 118°09'1 0.1
2015-Mar-25 07:20N 38°56' E 118°08'16211.0
2015-Mar-24 16:32N 38°19' E 121°30'3612.1
2015-Mar-24 13:33N 37°59' E 122°08'1312.5
2015-Mar-24 12:32N 37°54' E 122°23'1212.6
2015-Mar-24 11:33N 37°49' E 122°38'1212.4
2015-Mar-24 10:33N 37°38' E 122°45'1212.2
2015-Mar-24 09:33N 37°27' E 122°52'1110.7
2015-Mar-24 08:30N 37°16' E 122°53'910.0
2015-Mar-24 07:34N 37°06' E 122°53'10 9.6
2015-Mar-24 06:33N 36°57' E 122°53'10 9.9
2015-Mar-24 05:33N 36°47' E 122°53'1110.4
2015-Mar-24 04:30N 36°36' E 122°53'1310.8
2015-Mar-24 03:20N 36°24' E 122°54'911.1
2015-Mar-24 02:30N 36°14' E 122°54'25511.5
2015-Mar-23 04:21N 31°60' E 122°54'1112.2
2015-Mar-23 03:29N 31°49' E 122°54'1112.0
2015-Mar-23 02:32N 31°38' E 122°54'1111.5
2015-Mar-23 01:33N 31°27' E 122°53'1110.7
2015-Mar-23 00:34N 31°16' E 122°52'10 9.8
2015-Mar-22 23:34N 31°07' E 122°47'1111.2
2015-Mar-22 22:34N 31°05' E 122°35'1312.8
2015-Mar-22 21:33N 31°06' E 122°20'1413.7
2015-Mar-22 20:33N 31°13' E 122°06'1212.3
2015-Mar-22 19:33N 31°16' E 121°52'9 9.0
2015-Mar-22 18:33N 31°19' E 121°42'8 7.8
2015-Mar-22 17:33N 31°23' E 121°34'6 6.1
2015-Mar-22 16:33N 31°27' E 121°28'  
Track history (hours):
 
Tides and Currents Weather Stations Pressure Air Temp Water Temp Dewpoint Dewpoint Depression Visibility Wind Speed Wind Dir Waves Ship Positions

An Xiu Shan

Last reported at 2015-Apr-01 16:32 UTC. Time now 2015-Apr-01 16:38 UTC.
Position N 23°55' E 118°21'.

Length 199 m; draft 12.6 m.

Type: Cargo ship. MMSI: 413195000.

Date/timePositionNaut miles runAvg speedWind from/ knotsBaromVisibWave heightAir tempDewpointWater temp
2015-Apr-01 16:32N 23°55' E 118°21'1310.5
2015-Apr-01 15:17N 24°03' E 118°33'30 9.9
2015-Apr-01 12:17N 24°23' E 118°56'7 9.2
2015-Apr-01 11:32N 24°28' E 119°02'9 8.7
2015-Apr-01 10:33N 24°32' E 119°10'9 8.8
2015-Apr-01 09:32N 24°38' E 119°17'9 9.0
2015-Apr-01 08:33N 24°44' E 119°24'9 8.8
2015-Apr-01 07:32N 24°50' E 119°32'9 8.6
2015-Apr-01 06:31N 24°56' E 119°39'324 9.3
2015-Mar-30 19:30N 29°33' E 122°48'1310.0
2015-Mar-30 18:11N 29°46' E 122°52'710.1
2015-Mar-30 17:32N 29°52' E 122°55'152 8.8
2015-Mar-30 00:19N 32°24' E 122°54'7 9.1
2015-Mar-29 23:33N 32°31' E 122°54'9 9.3
2015-Mar-29 22:33N 32°40' E 122°54'10 9.8
2015-Mar-29 21:32N 32°50' E 122°54'23410.1
2015-Mar-28 22:25N 36°44' E 122°55'1110.7
2015-Mar-28 21:20N 36°56' E 122°52'810.4
2015-Mar-28 20:33N 37°03' E 122°49'1110.2
2015-Mar-28 19:30N 37°14' E 122°48'18 8.7
2015-Mar-28 17:26N 37°31' E 122°40'9 9.3
2015-Mar-28 16:27N 37°38' E 122°33'9 9.4
2015-Mar-28 15:32N 37°44' E 122°25'20 9.9
2015-Mar-28 13:29N 37°57' E 122°05'195 9.8
2015-Mar-27 17:31N 38°55' E 118°07'1111.3
2015-Mar-27 16:33N 38°57' E 117°53'4 3.4
2015-Mar-27 15:22N 38°58' E 117°48'0 0.0
2015-Mar-27 14:28N 38°58' E 117°48'0 0.0
2015-Mar-27 13:22N 38°58' E 117°48'0 0.0
2015-Mar-27 12:28N 38°58' E 117°48'0 0.0
2015-Mar-27 11:28N 38°58' E 117°48'0 0.0
2015-Mar-27 10:16N 38°58' E 117°48'0 0.0
2015-Mar-27 09:28N 38°58' E 117°48'0 0.0
2015-Mar-27 08:28N 38°58' E 117°48'0 0.0
2015-Mar-27 07:28N 38°58' E 117°48'0 0.0
2015-Mar-27 06:28N 38°58' E 117°48'0 0.0
2015-Mar-27 05:22N 38°58' E 117°48'0 0.0
2015-Mar-27 04:28N 38°58' E 117°48'0 0.0
2015-Mar-27 03:28N 38°58' E 117°48'0 0.0
2015-Mar-27 02:22N 38°58' E 117°48'0 0.0
2015-Mar-27 01:28N 38°58' E 117°48'0 0.0
2015-Mar-27 00:28N 38°58' E 117°48'0 0.0
2015-Mar-26 23:28N 38°58' E 117°48'0 0.0
2015-Mar-26 22:28N 38°58' E 117°48'0 0.0
2015-Mar-26 21:28N 38°58' E 117°48'0 0.0
2015-Mar-26 20:22N 38°58' E 117°48'0 0.0
2015-Mar-26 19:22N 38°58' E 117°48'0 0.0
2015-Mar-26 18:28N 38°58' E 117°48'0 0.0
2015-Mar-26 17:28N 38°58' E 117°48'0 0.0
2015-Mar-26 16:28N 38°58' E 117°48'0 0.0
2015-Mar-26 15:27N 38°58' E 117°48'5 6.1
2015-Mar-26 14:33N 38°57' E 117°55'10 9.3
2015-Mar-26 13:31N 38°56' E 118°07'1 1.0
2015-Mar-26 12:15N 38°57' E 118°09'0 0.0
2015-Mar-26 04:15N 38°57' E 118°09'0 0.0
2015-Mar-26 01:03N 38°57' E 118°09'0 0.0
2015-Mar-26 00:15N 38°57' E 118°09'0 0.0
2015-Mar-25 23:03N 38°57' E 118°09'0 0.1
2015-Mar-25 20:33N 38°57' E 118°09'0 0.0
2015-Mar-25 13:27N 38°57' E 118°09'1 0.1
2015-Mar-25 07:20N 38°56' E 118°08'16211.0
2015-Mar-24 16:32N 38°19' E 121°30'3612.1
2015-Mar-24 13:33N 37°59' E 122°08'1312.5
2015-Mar-24 12:32N 37°54' E 122°23'1212.6
2015-Mar-24 11:33N 37°49' E 122°38'1212.4
2015-Mar-24 10:33N 37°38' E 122°45'1212.2
2015-Mar-24 09:33N 37°27' E 122°52'1110.7
2015-Mar-24 08:30N 37°16' E 122°53'910.0
2015-Mar-24 07:34N 37°06' E 122°53'10 9.6
2015-Mar-24 06:33N 36°57' E 122°53'10 9.9
2015-Mar-24 05:33N 36°47' E 122°53'1110.4
2015-Mar-24 04:30N 36°36' E 122°53'1310.8
2015-Mar-24 03:20N 36°24' E 122°54'911.1
2015-Mar-24 02:30N 36°14' E 122°54'25511.5
2015-Mar-23 04:21N 31°60' E 122°54'1112.2
2015-Mar-23 03:29N 31°49' E 122°54'1112.0
2015-Mar-23 02:32N 31°38' E 122°54'1111.5
2015-Mar-23 01:33N 31°27' E 122°53'1110.7
2015-Mar-23 00:34N 31°16' E 122°52'10 9.8
2015-Mar-22 23:34N 31°07' E 122°47'1111.2
2015-Mar-22 22:34N 31°05' E 122°35'1312.8
2015-Mar-22 21:33N 31°06' E 122°20'1413.7
2015-Mar-22 20:33N 31°13' E 122°06'1212.3
2015-Mar-22 19:33N 31°16' E 121°52'9 9.0
2015-Mar-22 18:33N 31°19' E 121°42'8 7.8
2015-Mar-22 17:33N 31°23' E 121°34'6 6.1
2015-Mar-22 16:33N 31°27' E 121°28'  

Dump ship's entire track history